sensor_id;sensor_type;location;lat;lon;timestamp;temperature;humidity
20700;DHT22;10511;51.232;9.420;2022-07-04T00:02:18;18.00;99.90
20700;DHT22;10511;51.232;9.420;2022-07-04T00:04:45;18.00;99.90
20700;DHT22;10511;51.232;9.420;2022-07-04T00:07:12;18.00;99.90
20700;DHT22;10511;51.232;9.420;2022-07-04T00:09:38;18.00;99.90
20700;DHT22;10511;51.232;9.420;2022-07-04T00:12:06;18.00;99.90
20700;DHT22;10511;51.232;9.420;2022-07-04T00:14:34;18.00;99.90
20700;DHT22;10511;51.232;9.420;2022-07-04T00:17:00;18.00;99.90
20700;DHT22;10511;51.232;9.420;2022-07-04T00:19:29;17.90;99.90
20700;DHT22;10511;51.232;9.420;2022-07-04T00:21:56;17.80;99.90
20700;DHT22;10511;51.232;9.420;2022-07-04T00:24:23;17.80;99.90
20700;DHT22;10511;51.232;9.420;2022-07-04T00:26:49;17.80;99.90
20700;DHT22;10511;51.232;9.420;2022-07-04T00:29:16;17.80;99.90
20700;DHT22;10511;51.232;9.420;2022-07-04T00:31:43;17.80;99.90
20700;DHT22;10511;51.232;9.420;2022-07-04T00:34:11;17.70;99.90
20700;DHT22;10511;51.232;9.420;2022-07-04T00:36:39;17.70;99.90
20700;DHT22;10511;51.232;9.420;2022-07-04T00:39:06;17.60;99.90
20700;DHT22;10511;51.232;9.420;2022-07-04T00:41:32;17.60;99.90
20700;DHT22;10511;51.232;9.420;2022-07-04T00:44:00;17.60;99.90
20700;DHT22;10511;51.232;9.420;2022-07-04T00:46:27;17.80;99.90
20700;DHT22;10511;51.232;9.420;2022-07-04T00:48:54;18.00;99.90
20700;DHT22;10511;51.232;9.420;2022-07-04T00:51:22;18.20;99.90
20700;DHT22;10511;51.232;9.420;2022-07-04T00:53:50;18.30;99.90
20700;DHT22;10511;51.232;9.420;2022-07-04T00:56:17;18.30;99.90
20700;DHT22;10511;51.232;9.420;2022-07-04T00:58:44;18.40;99.90
20700;DHT22;10511;51.232;9.420;2022-07-04T01:01:11;18.30;99.90
20700;DHT22;10511;51.232;9.420;2022-07-04T01:03:38;18.30;99.90
20700;DHT22;10511;51.232;9.420;2022-07-04T01:06:06;18.50;99.90
20700;DHT22;10511;51.232;9.420;2022-07-04T01:08:34;18.40;99.90
20700;DHT22;10511;51.232;9.420;2022-07-04T01:11:03;18.40;99.90
20700;DHT22;10511;51.232;9.420;2022-07-04T01:13:30;18.30;99.90
20700;DHT22;10511;51.232;9.420;2022-07-04T01:15:57;18.50;99.90
20700;DHT22;10511;51.232;9.420;2022-07-04T01:18:24;18.60;99.90
20700;DHT22;10511;51.232;9.420;2022-07-04T01:20:52;18.60;99.90
20700;DHT22;10511;51.232;9.420;2022-07-04T01:23:19;18.60;99.90
20700;DHT22;10511;51.232;9.420;2022-07-04T01:25:46;18.60;99.90
20700;DHT22;10511;51.232;9.420;2022-07-04T01:28:14;18.70;99.90
20700;DHT22;10511;51.232;9.420;2022-07-04T01:30:41;18.90;99.90
20700;DHT22;10511;51.232;9.420;2022-07-04T01:33:08;18.90;99.90
20700;DHT22;10511;51.232;9.420;2022-07-04T01:35:35;18.70;99.90
20700;DHT22;10511;51.232;9.420;2022-07-04T01:38:03;18.30;99.90
20700;DHT22;10511;51.232;9.420;2022-07-04T01:40:30;18.30;99.90
20700;DHT22;10511;51.232;9.420;2022-07-04T01:42:57;18.10;99.90
20700;DHT22;10511;51.232;9.420;2022-07-04T01:45:25;17.90;99.90
20700;DHT22;10511;51.232;9.420;2022-07-04T01:47:52;18.00;99.90
20700;DHT22;10511;51.232;9.420;2022-07-04T01:50:18;18.20;99.90
20700;DHT22;10511;51.232;9.420;2022-07-04T01:52:46;18.20;99.90
20700;DHT22;10511;51.232;9.420;2022-07-04T01:55:14;18.20;99.90
20700;DHT22;10511;51.232;9.420;2022-07-04T01:57:41;18.30;99.90
20700;DHT22;10511;51.232;9.420;2022-07-04T02:00:10;18.40;99.90
20700;DHT22;10511;51.232;9.420;2022-07-04T02:02:51;18.40;99.90
20700;DHT22;10511;51.232;9.420;2022-07-04T02:05:18;18.60;99.90
20700;DHT22;10511;51.232;9.420;2022-07-04T02:07:45;18.70;99.90
20700;DHT22;10511;51.232;9.420;2022-07-04T02:10:13;18.70;99.90
20700;DHT22;10511;51.232;9.420;2022-07-04T02:12:40;18.80;99.90
20700;DHT22;10511;51.232;9.420;2022-07-04T02:15:25;18.70;99.90
20700;DHT22;10511;51.232;9.420;2022-07-04T02:17:53;18.60;99.90
20700;DHT22;10511;51.232;9.420;2022-07-04T02:20:20;18.40;99.90
20700;DHT22;10511;51.232;9.420;2022-07-04T02:22:47;18.00;99.90
20700;DHT22;10511;51.232;9.420;2022-07-04T02:25:15;17.80;99.90
20700;DHT22;10511;51.232;9.420;2022-07-04T02:27:42;17.80;99.90
20700;DHT22;10511;51.232;9.420;2022-07-04T02:30:09;17.90;99.90
20700;DHT22;10511;51.232;9.420;2022-07-04T02:32:37;18.00;99.90
20700;DHT22;10511;51.232;9.420;2022-07-04T02:35:05;18.00;99.90
20700;DHT22;10511;51.232;9.420;2022-07-04T02:37:32;17.80;99.90
20700;DHT22;10511;51.232;9.420;2022-07-04T02:39:59;17.90;99.90
20700;DHT22;10511;51.232;9.420;2022-07-04T02:42:30;17.90;99.90
20700;DHT22;10511;51.232;9.420;2022-07-04T02:44:57;17.80;99.90
20700;DHT22;10511;51.232;9.420;2022-07-04T02:47:24;17.70;99.90
20700;DHT22;10511;51.232;9.420;2022-07-04T02:49:51;17.70;99.90
20700;DHT22;10511;51.232;9.420;2022-07-04T02:52:18;17.70;99.90
20700;DHT22;10511;51.232;9.420;2022-07-04T02:54:45;17.70;99.90
20700;DHT22;10511;51.232;9.420;2022-07-04T02:57:16;17.80;99.90
20700;DHT22;10511;51.232;9.420;2022-07-04T02:59:45;17.90;99.90
20700;DHT22;10511;51.232;9.420;2022-07-04T03:02:12;18.10;99.90
20700;DHT22;10511;51.232;9.420;2022-07-04T03:04:39;18.10;99.90
20700;DHT22;10511;51.232;9.420;2022-07-04T03:07:06;18.10;99.90
20700;DHT22;10511;51.232;9.420;2022-07-04T03:09:34;17.90;99.90
20700;DHT22;10511;51.232;9.420;2022-07-04T03:12:01;17.90;99.90
20700;DHT22;10511;51.232;9.420;2022-07-04T03:14:28;17.80;99.90
20700;DHT22;10511;51.232;9.420;2022-07-04T03:16:56;17.70;99.90
20700;DHT22;10511;51.232;9.420;2022-07-04T03:19:23;17.60;99.90
20700;DHT22;10511;51.232;9.420;2022-07-04T03:21:50;17.50;99.90
20700;DHT22;10511;51.232;9.420;2022-07-04T03:24:17;17.40;99.90
20700;DHT22;10511;51.232;9.420;2022-07-04T03:26:44;17.10;99.90
20700;DHT22;10511;51.232;9.420;2022-07-04T03:29:11;16.90;99.90
20700;DHT22;10511;51.232;9.420;2022-07-04T03:31:38;16.90;99.90
20700;DHT22;10511;51.232;9.420;2022-07-04T03:34:06;16.80;99.90
20700;DHT22;10511;51.232;9.420;2022-07-04T03:36:33;16.80;99.90
20700;DHT22;10511;51.232;9.420;2022-07-04T03:39:00;17.00;99.90
20700;DHT22;10511;51.232;9.420;2022-07-04T03:41:27;17.10;99.90
20700;DHT22;10511;51.232;9.420;2022-07-04T03:43:53;16.80;99.90
20700;DHT22;10511;51.232;9.420;2022-07-04T03:46:20;16.80;99.90
20700;DHT22;10511;51.232;9.420;2022-07-04T03:48:47;16.70;99.90
20700;DHT22;10511;51.232;9.420;2022-07-04T03:51:15;16.80;99.90
20700;DHT22;10511;51.232;9.420;2022-07-04T03:53:42;17.00;99.90
20700;DHT22;10511;51.232;9.420;2022-07-04T03:56:09;16.80;99.90
20700;DHT22;10511;51.232;9.420;2022-07-04T03:58:36;16.30;99.90
20700;DHT22;10511;51.232;9.420;2022-07-04T04:01:03;16.00;99.90
20700;DHT22;10511;51.232;9.420;2022-07-04T04:03:30;16.20;99.90
20700;DHT22;10511;51.232;9.420;2022-07-04T04:06:16;16.20;99.90
20700;DHT22;10511;51.232;9.420;2022-07-04T04:08:43;16.40;99.90
20700;DHT22;10511;51.232;9.420;2022-07-04T04:11:10;16.40;99.90
20700;DHT22;10511;51.232;9.420;2022-07-04T04:13:37;16.10;99.90
20700;DHT22;10511;51.232;9.420;2022-07-04T04:16:04;15.90;99.90
20700;DHT22;10511;51.232;9.420;2022-07-04T04:18:31;15.80;99.90
20700;DHT22;10511;51.232;9.420;2022-07-04T04:20:58;15.70;99.90
20700;DHT22;10511;51.232;9.420;2022-07-04T04:23:26;15.60;99.90
20700;DHT22;10511;51.232;9.420;2022-07-04T04:25:53;15.50;99.90
20700;DHT22;10511;51.232;9.420;2022-07-04T04:28:20;15.50;99.90
20700;DHT22;10511;51.232;9.420;2022-07-04T04:30:47;15.50;99.90
20700;DHT22;10511;51.232;9.420;2022-07-04T04:33:14;15.70;99.90
20700;DHT22;10511;51.232;9.420;2022-07-04T04:35:41;15.70;99.90
20700;DHT22;10511;51.232;9.420;2022-07-04T04:38:08;15.80;99.90
20700;DHT22;10511;51.232;9.420;2022-07-04T04:40:36;16.00;99.90
20700;DHT22;10511;51.232;9.420;2022-07-04T04:43:03;16.30;99.90
20700;DHT22;10511;51.232;9.420;2022-07-04T04:45:30;16.40;99.90
20700;DHT22;10511;51.232;9.420;2022-07-04T04:47:56;16.30;99.90
20700;DHT22;10511;51.232;9.420;2022-07-04T04:50:23;16.30;99.90
20700;DHT22;10511;51.232;9.420;2022-07-04T04:52:50;16.40;99.90
20700;DHT22;10511;51.232;9.420;2022-07-04T04:55:17;16.50;99.90
20700;DHT22;10511;51.232;9.420;2022-07-04T04:57:45;16.50;99.90
20700;DHT22;10511;51.232;9.420;2022-07-04T05:00:13;16.60;99.90
20700;DHT22;10511;51.232;9.420;2022-07-04T05:02:40;16.60;99.90
20700;DHT22;10511;51.232;9.420;2022-07-04T05:05:07;16.70;99.90
20700;DHT22;10511;51.232;9.420;2022-07-04T05:07:34;16.80;99.90
20700;DHT22;10511;51.232;9.420;2022-07-04T05:10:01;16.90;99.90
20700;DHT22;10511;51.232;9.420;2022-07-04T05:12:29;17.00;99.90
20700;DHT22;10511;51.232;9.420;2022-07-04T05:14:57;17.10;99.90
20700;DHT22;10511;51.232;9.420;2022-07-04T05:17:24;17.30;99.90
20700;DHT22;10511;51.232;9.420;2022-07-04T05:19:51;17.20;99.90
20700;DHT22;10511;51.232;9.420;2022-07-04T05:22:18;17.10;99.90
20700;DHT22;10511;51.232;9.420;2022-07-04T05:24:45;17.10;99.90
20700;DHT22;10511;51.232;9.420;2022-07-04T05:27:12;17.10;99.90
20700;DHT22;10511;51.232;9.420;2022-07-04T05:29:39;17.00;99.90
20700;DHT22;10511;51.232;9.420;2022-07-04T05:32:08;17.10;99.90
20700;DHT22;10511;51.232;9.420;2022-07-04T05:34:35;17.10;99.90
20700;DHT22;10511;51.232;9.420;2022-07-04T05:37:03;17.00;99.90
20700;DHT22;10511;51.232;9.420;2022-07-04T05:39:30;17.00;99.90
20700;DHT22;10511;51.232;9.420;2022-07-04T05:41:57;17.00;99.90
20700;DHT22;10511;51.232;9.420;2022-07-04T05:44:24;16.90;99.90
20700;DHT22;10511;51.232;9.420;2022-07-04T05:46:50;16.90;99.90
20700;DHT22;10511;51.232;9.420;2022-07-04T05:49:19;16.90;99.90
20700;DHT22;10511;51.232;9.420;2022-07-04T05:51:46;17.10;99.90
20700;DHT22;10511;51.232;9.420;2022-07-04T05:54:13;17.10;99.90
20700;DHT22;10511;51.232;9.420;2022-07-04T05:56:39;17.20;99.90
20700;DHT22;10511;51.232;9.420;2022-07-04T05:59:08;17.30;99.90
20700;DHT22;10511;51.232;9.420;2022-07-04T06:01:35;17.20;99.90
20700;DHT22;10511;51.232;9.420;2022-07-04T06:04:03;17.10;99.90
20700;DHT22;10511;51.232;9.420;2022-07-04T06:06:31;17.00;99.90
20700;DHT22;10511;51.232;9.420;2022-07-04T06:08:59;17.10;99.90
20700;DHT22;10511;51.232;9.420;2022-07-04T06:11:26;17.10;99.90
20700;DHT22;10511;51.232;9.420;2022-07-04T06:13:53;17.10;99.90
20700;DHT22;10511;51.232;9.420;2022-07-04T06:16:20;17.10;99.90
20700;DHT22;10511;51.232;9.420;2022-07-04T06:18:47;17.10;99.90
20700;DHT22;10511;51.232;9.420;2022-07-04T06:21:13;17.10;99.90
20700;DHT22;10511;51.232;9.420;2022-07-04T06:23:42;17.10;99.90
20700;DHT22;10511;51.232;9.420;2022-07-04T06:26:09;17.20;99.90
20700;DHT22;10511;51.232;9.420;2022-07-04T06:28:35;17.10;99.90
20700;DHT22;10511;51.232;9.420;2022-07-04T06:31:02;17.20;99.90
20700;DHT22;10511;51.232;9.420;2022-07-04T06:33:29;17.30;99.90
20700;DHT22;10511;51.232;9.420;2022-07-04T06:35:56;17.30;99.90
20700;DHT22;10511;51.232;9.420;2022-07-04T06:38:27;17.30;99.90
20700;DHT22;10511;51.232;9.420;2022-07-04T06:40:56;17.30;99.90
20700;DHT22;10511;51.232;9.420;2022-07-04T06:43:24;17.30;99.90
20700;DHT22;10511;51.232;9.420;2022-07-04T06:45:52;17.30;99.90
20700;DHT22;10511;51.232;9.420;2022-07-04T06:48:19;17.40;99.90
20700;DHT22;10511;51.232;9.420;2022-07-04T06:50:46;17.50;99.90
20700;DHT22;10511;51.232;9.420;2022-07-04T06:53:13;17.50;99.90
20700;DHT22;10511;51.232;9.420;2022-07-04T06:55:41;17.60;99.90
20700;DHT22;10511;51.232;9.420;2022-07-04T06:58:10;17.60;99.90
20700;DHT22;10511;51.232;9.420;2022-07-04T07:00:37;17.70;99.90
20700;DHT22;10511;51.232;9.420;2022-07-04T07:03:04;17.80;99.90
20700;DHT22;10511;51.232;9.420;2022-07-04T07:05:31;17.80;99.90
20700;DHT22;10511;51.232;9.420;2022-07-04T07:08:03;17.90;99.90
20700;DHT22;10511;51.232;9.420;2022-07-04T07:10:30;17.90;99.90
20700;DHT22;10511;51.232;9.420;2022-07-04T07:12:57;17.70;99.90
20700;DHT22;10511;51.232;9.420;2022-07-04T07:15:26;17.70;99.90
20700;DHT22;10511;51.232;9.420;2022-07-04T07:17:53;17.80;99.90
20700;DHT22;10511;51.232;9.420;2022-07-04T07:20:19;17.90;99.90
20700;DHT22;10511;51.232;9.420;2022-07-04T07:22:46;17.90;99.90
20700;DHT22;10511;51.232;9.420;2022-07-04T07:25:13;18.00;99.90
20700;DHT22;10511;51.232;9.420;2022-07-04T07:27:40;18.10;99.90
20700;DHT22;10511;51.232;9.420;2022-07-04T07:30:08;18.10;99.90
20700;DHT22;10511;51.232;9.420;2022-07-04T07:32:36;18.20;99.90
20700;DHT22;10511;51.232;9.420;2022-07-04T07:35:04;18.20;99.90
20700;DHT22;10511;51.232;9.420;2022-07-04T07:37:31;18.30;99.90
20700;DHT22;10511;51.232;9.420;2022-07-04T07:39:58;18.40;99.90
20700;DHT22;10511;51.232;9.420;2022-07-04T07:42:25;18.50;99.90
20700;DHT22;10511;51.232;9.420;2022-07-04T07:44:52;18.60;99.90
20700;DHT22;10511;51.232;9.420;2022-07-04T07:47:19;18.80;99.90
20700;DHT22;10511;51.232;9.420;2022-07-04T07:49:47;18.90;99.90
20700;DHT22;10511;51.232;9.420;2022-07-04T07:52:14;18.70;99.90
20700;DHT22;10511;51.232;9.420;2022-07-04T07:54:42;18.60;99.90
20700;DHT22;10511;51.232;9.420;2022-07-04T07:57:09;18.60;99.90
20700;DHT22;10511;51.232;9.420;2022-07-04T07:59:36;18.70;99.90
20700;DHT22;10511;51.232;9.420;2022-07-04T08:02:03;18.80;99.90
20700;DHT22;10511;51.232;9.420;2022-07-04T08:04:30;18.70;99.90
20700;DHT22;10511;51.232;9.420;2022-07-04T08:07:05;18.70;99.90
20700;DHT22;10511;51.232;9.420;2022-07-04T08:09:33;19.00;99.90
20700;DHT22;10511;51.232;9.420;2022-07-04T08:12:00;19.20;99.90
20700;DHT22;10511;51.232;9.420;2022-07-04T08:14:27;19.40;99.90
20700;DHT22;10511;51.232;9.420;2022-07-04T08:16:54;19.10;99.90
20700;DHT22;10511;51.232;9.420;2022-07-04T08:19:22;19.50;99.90
20700;DHT22;10511;51.232;9.420;2022-07-04T08:21:50;19.40;99.90
20700;DHT22;10511;51.232;9.420;2022-07-04T08:24:18;19.40;99.90
20700;DHT22;10511;51.232;9.420;2022-07-04T08:26:45;19.30;99.90
20700;DHT22;10511;51.232;9.420;2022-07-04T08:29:13;19.50;99.90
20700;DHT22;10511;51.232;9.420;2022-07-04T08:31:40;19.60;99.90
20700;DHT22;10511;51.232;9.420;2022-07-04T08:34:07;19.70;99.90
20700;DHT22;10511;51.232;9.420;2022-07-04T08:36:34;19.80;99.90
20700;DHT22;10511;51.232;9.420;2022-07-04T08:39:01;19.70;99.90
20700;DHT22;10511;51.232;9.420;2022-07-04T08:41:32;19.70;99.90
20700;DHT22;10511;51.232;9.420;2022-07-04T08:44:01;20.10;99.90
20700;DHT22;10511;51.232;9.420;2022-07-04T08:46:29;20.40;99.90
20700;DHT22;10511;51.232;9.420;2022-07-04T08:48:58;20.10;99.90
20700;DHT22;10511;51.232;9.420;2022-07-04T08:51:47;19.90;99.90
20700;DHT22;10511;51.232;9.420;2022-07-04T08:54:15;19.80;99.90
20700;DHT22;10511;51.232;9.420;2022-07-04T08:57:01;19.70;99.90
20700;DHT22;10511;51.232;9.420;2022-07-04T08:59:45;19.70;99.90
20700;DHT22;10511;51.232;9.420;2022-07-04T09:02:16;20.20;99.90
20700;DHT22;10511;51.232;9.420;2022-07-04T09:04:46;20.30;99.90
20700;DHT22;10511;51.232;9.420;2022-07-04T09:07:13;20.40;99.90
20700;DHT22;10511;51.232;9.420;2022-07-04T09:09:41;20.60;99.90
20700;DHT22;10511;51.232;9.420;2022-07-04T09:12:10;20.70;99.90
20700;DHT22;10511;51.232;9.420;2022-07-04T09:14:37;20.50;99.90
20700;DHT22;10511;51.232;9.420;2022-07-04T09:17:05;20.30;99.90
20700;DHT22;10511;51.232;9.420;2022-07-04T09:19:32;20.40;99.90
20700;DHT22;10511;51.232;9.420;2022-07-04T09:22:03;20.20;99.90
20700;DHT22;10511;51.232;9.420;2022-07-04T09:24:48;20.50;99.90
20700;DHT22;10511;51.232;9.420;2022-07-04T09:27:34;20.80;99.90
20700;DHT22;10511;51.232;9.420;2022-07-04T09:30:01;20.90;99.90
20700;DHT22;10511;51.232;9.420;2022-07-04T09:32:35;20.60;99.90
20700;DHT22;10511;51.232;9.420;2022-07-04T09:35:04;20.30;99.90
20700;DHT22;10511;51.232;9.420;2022-07-04T09:37:35;20.10;99.90
20700;DHT22;10511;51.232;9.420;2022-07-04T09:40:05;20.40;99.90
20700;DHT22;10511;51.232;9.420;2022-07-04T09:42:41;20.90;99.90
20700;DHT22;10511;51.232;9.420;2022-07-04T09:45:10;21.20;99.70
20700;DHT22;10511;51.232;9.420;2022-07-04T09:47:38;21.60;99.90
20700;DHT22;10511;51.232;9.420;2022-07-04T09:50:07;21.60;98.50
20700;DHT22;10511;51.232;9.420;2022-07-04T09:52:48;21.20;97.70
20700;DHT22;10511;51.232;9.420;2022-07-04T09:55:23;20.60;97.80
20700;DHT22;10511;51.232;9.420;2022-07-04T09:57:53;20.20;98.50
20700;DHT22;10511;51.232;9.420;2022-07-04T10:00:22;20.20;98.60
20700;DHT22;10511;51.232;9.420;2022-07-04T10:02:49;20.40;99.20
20700;DHT22;10511;51.232;9.420;2022-07-04T10:05:24;20.70;98.70
20700;DHT22;10511;51.232;9.420;2022-07-04T10:07:53;20.70;97.90
20700;DHT22;10511;51.232;9.420;2022-07-04T10:10:21;20.60;97.30
20700;DHT22;10511;51.232;9.420;2022-07-04T10:12:49;21.10;99.40
20700;DHT22;10511;51.232;9.420;2022-07-04T10:15:18;21.30;97.50
20700;DHT22;10511;51.232;9.420;2022-07-04T10:17:45;21.10;96.50
20700;DHT22;10511;51.232;9.420;2022-07-04T10:20:12;21.00;97.50
20700;DHT22;10511;51.232;9.420;2022-07-04T10:22:40;21.10;97.20
20700;DHT22;10511;51.232;9.420;2022-07-04T10:25:09;21.70;98.60
20700;DHT22;10511;51.232;9.420;2022-07-04T10:27:37;22.00;96.90
20700;DHT22;10511;51.232;9.420;2022-07-04T10:30:06;21.80;96.50
20700;DHT22;10511;51.232;9.420;2022-07-04T10:32:35;21.70;95.60
20700;DHT22;10511;51.232;9.420;2022-07-04T10:35:03;21.30;95.80
20700;DHT22;10511;51.232;9.420;2022-07-04T10:37:59;20.80;95.90
20700;DHT22;10511;51.232;9.420;2022-07-04T10:40:43;21.10;97.20
20700;DHT22;10511;51.232;9.420;2022-07-04T10:46:43;22.20;95.70
20700;DHT22;10511;51.232;9.420;2022-07-04T10:49:23;22.70;94.20
20700;DHT22;10511;51.232;9.420;2022-07-04T10:51:52;22.30;93.40
20700;DHT22;10511;51.232;9.420;2022-07-04T10:54:20;21.80;94.20
20700;DHT22;10511;51.232;9.420;2022-07-04T10:56:50;22.10;93.80
20700;DHT22;10511;51.232;9.420;2022-07-04T10:59:21;22.50;93.40
20700;DHT22;10511;51.232;9.420;2022-07-04T11:02:25;22.70;95.50
20700;DHT22;10511;51.232;9.420;2022-07-04T11:04:56;22.80;91.40
20700;DHT22;10511;51.232;9.420;2022-07-04T11:07:56;22.80;92.90
20700;DHT22;10511;51.232;9.420;2022-07-04T11:10:23;23.10;90.60
20700;DHT22;10511;51.232;9.420;2022-07-04T11:13:21;23.00;90.30
20700;DHT22;10511;51.232;9.420;2022-07-04T11:15:59;22.60;90.50
20700;DHT22;10511;51.232;9.420;2022-07-04T11:18:27;22.70;92.50
20700;DHT22;10511;51.232;9.420;2022-07-04T11:20:56;22.90;92.40
20700;DHT22;10511;51.232;9.420;2022-07-04T11:23:23;23.30;91.70
20700;DHT22;10511;51.232;9.420;2022-07-04T11:25:51;23.10;90.70
20700;DHT22;10511;51.232;9.420;2022-07-04T11:28:21;23.20;91.40
20700;DHT22;10511;51.232;9.420;2022-07-04T11:30:49;23.60;90.40
20700;DHT22;10511;51.232;9.420;2022-07-04T11:33:18;23.20;89.80
20700;DHT22;10511;51.232;9.420;2022-07-04T11:36:04;23.00;89.10
20700;DHT22;10511;51.232;9.420;2022-07-04T11:38:45;22.70;88.80
20700;DHT22;10511;51.232;9.420;2022-07-04T11:41:12;22.80;89.20
20700;DHT22;10511;51.232;9.420;2022-07-04T11:43:57;23.00;90.10
20700;DHT22;10511;51.232;9.420;2022-07-04T11:46:41;23.20;88.70
20700;DHT22;10511;51.232;9.420;2022-07-04T11:49:09;23.50;91.40
20700;DHT22;10511;51.232;9.420;2022-07-04T11:51:43;23.80;91.20
20700;DHT22;10511;51.232;9.420;2022-07-04T11:54:10;24.00;88.20
20700;DHT22;10511;51.232;9.420;2022-07-04T11:56:37;24.00;90.90
20700;DHT22;10511;51.232;9.420;2022-07-04T11:59:11;23.80;90.00
20700;DHT22;10511;51.232;9.420;2022-07-04T12:01:39;23.90;90.60
20700;DHT22;10511;51.232;9.420;2022-07-04T12:04:13;23.90;88.80
20700;DHT22;10511;51.232;9.420;2022-07-04T12:06:43;23.90;86.50
20700;DHT22;10511;51.232;9.420;2022-07-04T12:09:10;24.10;88.60
20700;DHT22;10511;51.232;9.420;2022-07-04T12:11:59;24.30;88.20
20700;DHT22;10511;51.232;9.420;2022-07-04T12:14:27;24.20;87.90
20700;DHT22;10511;51.232;9.420;2022-07-04T12:17:17;24.40;82.70
20700;DHT22;10511;51.232;9.420;2022-07-04T12:19:52;24.30;85.50
20700;DHT22;10511;51.232;9.420;2022-07-04T12:22:29;24.70;88.50
20700;DHT22;10511;51.232;9.420;2022-07-04T12:24:57;25.00;85.40
20700;DHT22;10511;51.232;9.420;2022-07-04T12:27:24;24.40;81.50
20700;DHT22;10511;51.232;9.420;2022-07-04T12:29:52;24.20;86.10
20700;DHT22;10511;51.232;9.420;2022-07-04T12:32:19;24.30;84.40
20700;DHT22;10511;51.232;9.420;2022-07-04T12:34:46;24.40;81.30
20700;DHT22;10511;51.232;9.420;2022-07-04T12:37:14;24.50;81.20
20700;DHT22;10511;51.232;9.420;2022-07-04T12:39:44;24.30;78.50
20700;DHT22;10511;51.232;9.420;2022-07-04T12:42:15;24.40;79.30
20700;DHT22;10511;51.232;9.420;2022-07-04T12:44:44;24.40;78.90
20700;DHT22;10511;51.232;9.420;2022-07-04T12:47:15;24.50;78.00
20700;DHT22;10511;51.232;9.420;2022-07-04T12:49:43;24.10;77.70
20700;DHT22;10511;51.232;9.420;2022-07-04T12:52:12;24.10;79.80
20700;DHT22;10511;51.232;9.420;2022-07-04T12:54:40;24.30;82.20
20700;DHT22;10511;51.232;9.420;2022-07-04T12:57:13;24.20;80.20
20700;DHT22;10511;51.232;9.420;2022-07-04T12:59:40;23.80;81.60
20700;DHT22;10511;51.232;9.420;2022-07-04T13:02:08;23.70;84.30
20700;DHT22;10511;51.232;9.420;2022-07-04T13:04:36;23.90;85.10
20700;DHT22;10511;51.232;9.420;2022-07-04T13:07:20;24.20;81.80
20700;DHT22;10511;51.232;9.420;2022-07-04T13:09:47;24.60;78.90
20700;DHT22;10511;51.232;9.420;2022-07-04T13:12:15;24.40;77.80
20700;DHT22;10511;51.232;9.420;2022-07-04T13:14:53;24.40;77.80
20700;DHT22;10511;51.232;9.420;2022-07-04T13:17:21;24.70;80.40
20700;DHT22;10511;51.232;9.420;2022-07-04T13:19:48;25.00;78.40
20700;DHT22;10511;51.232;9.420;2022-07-04T13:22:17;25.10;76.00
20700;DHT22;10511;51.232;9.420;2022-07-04T13:24:45;25.20;77.40
20700;DHT22;10511;51.232;9.420;2022-07-04T13:27:11;25.50;75.50
20700;DHT22;10511;51.232;9.420;2022-07-04T13:29:40;25.50;75.60
20700;DHT22;10511;51.232;9.420;2022-07-04T13:32:07;25.70;75.40
20700;DHT22;10511;51.232;9.420;2022-07-04T13:34:35;25.80;78.70
20700;DHT22;10511;51.232;9.420;2022-07-04T13:37:02;25.80;76.00
20700;DHT22;10511;51.232;9.420;2022-07-04T13:39:29;25.70;74.40
20700;DHT22;10511;51.232;9.420;2022-07-04T13:41:57;25.30;79.10
20700;DHT22;10511;51.232;9.420;2022-07-04T13:44:24;25.50;73.20
20700;DHT22;10511;51.232;9.420;2022-07-04T13:46:52;25.10;73.90
20700;DHT22;10511;51.232;9.420;2022-07-04T13:49:19;25.10;75.60
20700;DHT22;10511;51.232;9.420;2022-07-04T13:51:46;25.30;77.40
20700;DHT22;10511;51.232;9.420;2022-07-04T13:54:13;25.40;76.30
20700;DHT22;10511;51.232;9.420;2022-07-04T13:56:40;25.30;75.00
20700;DHT22;10511;51.232;9.420;2022-07-04T13:59:07;25.00;75.80
20700;DHT22;10511;51.232;9.420;2022-07-04T14:01:35;25.00;76.10
20700;DHT22;10511;51.232;9.420;2022-07-04T14:04:03;24.90;76.50
20700;DHT22;10511;51.232;9.420;2022-07-04T14:06:31;24.80;76.40
20700;DHT22;10511;51.232;9.420;2022-07-04T14:08:58;24.90;82.50
20700;DHT22;10511;51.232;9.420;2022-07-04T14:11:25;24.90;76.50
20700;DHT22;10511;51.232;9.420;2022-07-04T14:13:52;24.70;75.00
20700;DHT22;10511;51.232;9.420;2022-07-04T14:16:19;24.70;75.10
20700;DHT22;10511;51.232;9.420;2022-07-04T14:18:46;25.10;75.20
20700;DHT22;10511;51.232;9.420;2022-07-04T14:21:14;25.20;75.30
20700;DHT22;10511;51.232;9.420;2022-07-04T14:23:41;25.40;78.00
20700;DHT22;10511;51.232;9.420;2022-07-04T14:26:12;25.30;75.90
20700;DHT22;10511;51.232;9.420;2022-07-04T14:28:39;25.20;77.30
20700;DHT22;10511;51.232;9.420;2022-07-04T14:31:07;25.20;76.00
20700;DHT22;10511;51.232;9.420;2022-07-04T14:33:34;25.00;73.80
20700;DHT22;10511;51.232;9.420;2022-07-04T14:36:01;24.80;74.70
20700;DHT22;10511;51.232;9.420;2022-07-04T14:38:30;24.90;76.70
20700;DHT22;10511;51.232;9.420;2022-07-04T14:40:57;25.00;76.10
20700;DHT22;10511;51.232;9.420;2022-07-04T14:43:38;25.30;74.90
20700;DHT22;10511;51.232;9.420;2022-07-04T14:46:05;25.20;73.90
20700;DHT22;10511;51.232;9.420;2022-07-04T14:48:32;25.40;73.50
20700;DHT22;10511;51.232;9.420;2022-07-04T14:50:59;25.60;73.90
20700;DHT22;10511;51.232;9.420;2022-07-04T14:53:27;25.70;73.10
20700;DHT22;10511;51.232;9.420;2022-07-04T14:55:55;25.50;77.50
20700;DHT22;10511;51.232;9.420;2022-07-04T14:58:22;25.60;75.60
20700;DHT22;10511;51.232;9.420;2022-07-04T15:00:49;25.50;75.70
20700;DHT22;10511;51.232;9.420;2022-07-04T15:03:16;25.40;75.70
20700;DHT22;10511;51.232;9.420;2022-07-04T15:05:43;25.50;75.30
20700;DHT22;10511;51.232;9.420;2022-07-04T15:08:10;25.40;74.50
20700;DHT22;10511;51.232;9.420;2022-07-04T15:10:37;25.00;74.20
20700;DHT22;10511;51.232;9.420;2022-07-04T15:13:06;25.00;75.20
20700;DHT22;10511;51.232;9.420;2022-07-04T15:15:33;25.20;74.90
20700;DHT22;10511;51.232;9.420;2022-07-04T15:18:00;25.10;76.30
20700;DHT22;10511;51.232;9.420;2022-07-04T15:20:27;24.90;73.60
20700;DHT22;10511;51.232;9.420;2022-07-04T15:23:12;24.90;74.90
20700;DHT22;10511;51.232;9.420;2022-07-04T15:25:56;25.20;75.20
20700;DHT22;10511;51.232;9.420;2022-07-04T15:28:24;25.10;74.30
20700;DHT22;10511;51.232;9.420;2022-07-04T15:30:51;24.80;76.00
20700;DHT22;10511;51.232;9.420;2022-07-04T15:33:18;24.70;75.20
20700;DHT22;10511;51.232;9.420;2022-07-04T15:35:45;24.70;75.30
20700;DHT22;10511;51.232;9.420;2022-07-04T15:38:13;24.80;75.10
20700;DHT22;10511;51.232;9.420;2022-07-04T15:40:41;24.90;78.70
20700;DHT22;10511;51.232;9.420;2022-07-04T15:43:09;24.90;75.10
20700;DHT22;10511;51.232;9.420;2022-07-04T15:45:37;24.60;77.10